Time;durP1;ratioP1;P1;durP2;ratioP2;P2;SDS_P1;SDS_P2;PMS_P1;PMS_P2;Temp;Humidity;BMP_temperature;BMP_pressure;BME280_temperature;BME280_humidity;BME280_pressure;Samples;Min_cycle;Max_cycle;Signal;HPM_P1;HPM_P2
2022/01/25 00:15:13;;;;;;;4.60;3.92;;;21.90;32.00;;;;;;5073709;28;20391;-68
2022/01/25 00:31:04;;;;;;;4.57;4.00;;;21.80;32.00;;;;;;5073223;28;20914;-68
2022/01/25 00:33:31;;;;;;;4.82;4.00;;;21.80;32.00;;;;;;5072522;28;20848;-64
2022/01/25 00:35:59;;;;;;;4.00;3.60;;;21.80;32.00;;;;;;5072950;28;20426;-71
2022/01/25 00:38:24;;;;;;;4.73;3.87;;;21.80;32.00;;;;;;5071644;28;20864;-63
2022/01/25 00:40:50;;;;;;;3.92;3.50;;;21.80;32.00;;;;;;5072873;28;20499;-63
2022/01/25 00:43:16;;;;;;;3.90;3.50;;;21.80;32.00;;;;;;5072570;28;20426;-64
2022/01/25 00:45:42;;;;;;;4.03;3.45;;;21.80;32.00;;;;;;5072469;28;20416;-71
2022/01/25 00:48:17;;;;;;;4.40;3.40;;;21.80;32.00;;;;;;5072683;28;20465;-64
2022/01/25 00:50:43;;;;;;;4.00;3.60;;;21.80;32.00;;;;;;5072651;28;20415;-69
2022/01/25 00:55:53;;;;;;;3.65;3.22;;;21.80;32.00;;;;;;5072645;28;20399;-70
2022/01/25 00:58:18;;;;;;;3.80;3.33;;;21.80;32.00;;;;;;5072471;28;20856;-66
2022/01/25 01:00:44;;;;;;;3.58;3.10;;;21.80;32.10;;;;;;5072418;28;20473;-63
2022/01/25 01:03:10;;;;;;;4.10;3.40;;;21.80;32.10;;;;;;5072304;28;20383;-70
2022/01/25 01:05:37;;;;;;;3.72;3.17;;;21.80;32.10;;;;;;5071852;28;20478;-69
2022/01/25 01:08:03;;;;;;;3.47;3.17;;;21.70;32.00;;;;;;5072411;28;20389;-63
2022/01/25 01:10:28;;;;;;;3.73;3.10;;;21.70;32.00;;;;;;5072167;28;20403;-63
2022/01/25 01:13:23;;;;;;;3.60;3.22;;;21.70;32.00;;;;;;5072368;28;20384;-65
2022/01/25 01:15:52;;;;;;;3.95;3.50;;;21.70;32.00;;;;;;5071544;28;20427;-63
2022/01/25 01:29:33;;;;;;;4.10;3.30;;;21.70;32.00;;;;;;5072025;28;20516;-69
2022/01/25 01:32:20;;;;;;;4.03;3.17;;;21.60;32.00;;;;;;5071947;28;20911;-66
2022/01/25 01:43:11;;;;;;;3.35;2.85;;;21.60;32.00;;;;;;5040397;28;20384;-63
2022/01/25 01:51:08;;;;;;;3.67;3.10;;;21.60;32.00;;;;;;5071772;28;20497;-64
2022/01/25 01:53:35;;;;;;;3.47;2.90;;;21.60;32.10;;;;;;5071188;28;20391;-64
2022/01/25 01:56:02;;;;;;;3.40;2.92;;;21.60;32.10;;;;;;5104363;28;20380;-68
2022/01/25 01:58:28;;;;;;;3.30;3.00;;;21.60;32.10;;;;;;5071601;28;20391;-67
2022/01/25 02:00:54;;;;;;;4.18;3.10;;;21.60;32.00;;;;;;5071579;28;20714;-67
2022/01/25 02:03:20;;;;;;;3.75;3.08;;;21.60;32.00;;;;;;5071333;28;20383;-67
2022/01/25 02:05:46;;;;;;;3.83;3.10;;;21.50;32.00;;;;;;5071317;28;20868;-69
2022/01/25 02:08:12;;;;;;;3.85;2.95;;;21.50;31.90;;;;;;5071517;28;20475;-64
2022/01/25 02:10:38;;;;;;;3.33;2.93;;;21.50;31.90;;;;;;5071400;28;20461;-64
2022/01/25 02:13:06;;;;;;;3.30;2.80;;;21.50;31.90;;;;;;5071304;28;20395;-67
2022/01/25 02:15:33;;;;;;;3.47;3.08;;;21.50;31.90;;;;;;5070630;28;20380;-68
2022/01/25 02:23:28;;;;;;;3.40;3.10;;;21.50;31.90;;;;;;5070875;28;20374;-68
2022/01/25 02:25:57;;;;;;;3.10;2.67;;;21.50;31.90;;;;;;5071507;28;20797;-71
2022/01/25 02:28:26;;;;;;;3.20;2.80;;;21.50;31.90;;;;;;5071317;28;20383;-64
2022/01/25 02:30:53;;;;;;;3.60;2.80;;;21.50;31.90;;;;;;5071054;28;20503;-68
2022/01/25 02:33:19;;;;;;;4.03;2.70;;;21.50;32.00;;;;;;5071200;28;20429;-65
2022/01/25 02:35:45;;;;;;;3.72;3.00;;;21.50;32.00;;;;;;5070748;28;20391;-66
2022/01/25 02:38:14;;;;;;;3.30;2.73;;;21.50;32.00;;;;;;5071246;28;20388;-71
2022/01/25 02:40:40;;;;;;;3.58;2.90;;;21.50;32.10;;;;;;5071247;28;20458;-67
2022/01/25 02:43:06;;;;;;;3.47;2.88;;;21.40;32.00;;;;;;5071233;28;20384;-69
2022/01/25 02:45:34;;;;;;;3.63;2.90;;;21.40;32.00;;;;;;5070653;28;20387;-68
2022/01/25 02:50:45;;;;;;;3.67;3.10;;;21.40;31.90;;;;;;5071022;28;20415;-67
2022/01/25 02:53:10;;;;;;;3.25;2.60;;;21.40;31.90;;;;;;5071129;28;20391;-64
2022/01/25 02:55:39;;;;;;;3.30;3.00;;;21.40;31.90;;;;;;5070522;28;20460;-64
2022/01/25 02:58:05;;;;;;;3.33;2.90;;;21.40;31.90;;;;;;5071158;28;20406;-64
2022/01/25 03:00:32;;;;;;;3.70;3.10;;;21.40;31.90;;;;;;5071027;28;20454;-64
2022/01/25 03:02:58;;;;;;;3.83;2.70;;;21.40;31.90;;;;;;5071182;28;20428;-64
2022/01/25 03:05:23;;;;;;;3.28;2.70;;;21.40;31.90;;;;;;5070583;28;20392;-67
2022/01/25 03:07:49;;;;;;;3.85;2.60;;;21.40;32.50;;;;;;5070832;28;20384;-69
2022/01/25 03:10:15;;;;;;;3.65;2.80;;;21.40;31.90;;;;;;5070700;28;20483;-68
2022/01/25 03:12:50;;;;;;;3.33;2.80;;;21.30;31.90;;;;;;5070906;28;20388;-67
2022/01/25 03:17:56;;;;;;;3.55;2.67;;;21.30;31.90;;;;;;5070545;28;20934;-64
2022/01/25 03:20:34;;;;;;;3.08;2.60;;;21.30;31.90;;;;;;5070820;28;20376;-67
2022/01/25 03:23:05;;;;;;;3.22;2.78;;;21.30;31.90;;;;;;5070910;28;20391;-65
2022/01/25 03:25:32;;;;;;;3.20;2.90;;;21.30;32.00;;;;;;5070473;28;20440;-70
2022/01/25 03:27:58;;;;;;;3.13;2.70;;;21.30;31.90;;;;;;5074493;28;20428;-70
2022/01/25 03:30:25;;;;;;;3.45;3.10;;;21.30;31.90;;;;;;5072847;28;20435;-66
2022/01/25 03:32:51;;;;;;;3.03;2.72;;;21.30;31.90;;;;;;5074293;28;20395;-64
2022/01/25 03:35:16;;;;;;;3.03;2.67;;;21.30;31.90;;;;;;5074132;28;20380;-70
2022/01/25 03:37:42;;;;;;;3.38;3.08;;;21.30;31.90;;;;;;5073529;28;20726;-64
2022/01/25 03:40:09;;;;;;;3.05;2.70;;;21.30;31.90;;;;;;5074192;28;20872;-68
2022/01/25 03:42:37;;;;;;;3.40;2.95;;;21.30;31.80;;;;;;5074019;28;20392;-64
2022/01/25 03:45:05;;;;;;;4.78;3.00;;;21.30;32.50;;;;;;5074059;28;20380;-71
2022/01/25 03:47:41;;;;;;;3.10;2.72;;;21.30;31.90;;;;;;5074346;28;20398;-66
2022/01/25 03:50:08;;;;;;;3.40;2.60;;;21.30;31.80;;;;;;5074543;28;20895;-67
2022/01/25 03:52:35;;;;;;;3.03;2.73;;;21.30;31.90;;;;;;5074124;28;20951;-69
2022/01/25 03:55:01;;;;;;;3.45;2.95;;;21.30;31.80;;;;;;5073933;28;20387;-71
2022/01/25 03:57:27;;;;;;;3.22;2.85;;;21.20;31.80;;;;;;5073569;28;20388;-70
2022/01/25 04:00:00;;;;;;;3.47;3.00;;;21.20;31.80;;;;;;5074506;28;20445;-70
2022/01/25 04:02:29;;;;;;;3.80;2.90;;;21.20;31.90;;;;;;5073721;28;20497;-64
2022/01/25 04:04:56;;;;;;;3.28;2.97;;;21.20;31.90;;;;;;5073629;28;20438;-63
2022/01/25 04:07:30;;;;;;;3.30;2.97;;;21.10;31.60;;;;;;5073637;28;20430;-68
2022/01/25 04:09:56;;;;;;;3.60;2.78;;;21.10;32.10;;;;;;5073644;28;20384;-68
2022/01/25 04:12:22;;;;;;;7.88;2.80;;;21.10;32.40;;;;;;5074178;28;20411;-64
2022/01/25 04:14:48;;;;;;;4.20;2.77;;;21.20;33.20;;;;;;5073361;28;20384;-66
2022/01/25 04:17:18;;;;;;;4.88;3.45;;;21.20;32.60;;;;;;5073367;28;20888;-64
2022/01/25 04:19:56;;;;;;;5.07;3.00;;;21.20;33.20;;;;;;5073036;28;20790;-71
2022/01/25 04:25:07;;;;;;;4.38;3.08;;;21.20;33.30;;;;;;5073198;28;20410;-64
2022/01/25 04:27:33;;;;;;;4.25;2.90;;;21.30;34.10;;;;;;5072938;28;20384;-66
2022/01/25 04:30:00;;;;;;;3.65;3.10;;;21.30;34.10;;;;;;5023492;27;20398;-65
2022/01/25 04:32:43;;;;;;;5.13;2.90;;;21.40;33.90;;;;;;5033230;28;20786;-63
2022/01/25 04:35:24;;;;;;;5.13;2.80;;;21.40;34.80;;;;;;5024331;28;20396;-65
2022/01/25 04:54:04;;;;;;;4.85;2.47;;;21.60;34.30;;;;;;5032428;28;21063;-70
2022/01/25 04:56:44;;;;;;;2.95;2.40;;;21.60;34.30;;;;;;5032621;28;20395;-68
2022/01/25 04:59:38;;;;;;;4.18;2.50;;;21.50;34.40;;;;;;5032446;28;20790;-64
2022/01/25 05:02:04;;;;;;;4.38;2.30;;;21.50;33.90;;;;;;5031864;28;20418;-65
2022/01/25 05:04:31;;;;;;;3.60;2.50;;;21.50;34.50;;;;;;5032169;28;20400;-66
2022/01/25 05:07:05;;;;;;;5.03;2.53;;;21.40;34.60;;;;;;5032061;28;20395;-70
2022/01/25 05:09:33;;;;;;;4.63;2.58;;;21.50;34.90;;;;;;5031993;28;20449;-69
2022/01/25 05:11:59;;;;;;;3.87;2.50;;;21.50;34.80;;;;;;5032332;28;20453;-65
2022/01/25 05:14:32;;;;;;;3.55;2.40;;;21.50;34.70;;;;;;5032172;28;20418;-66
2022/01/25 05:17:00;;;;;;;2.90;2.50;;;21.50;34.50;;;;;;5032413;28;20389;-69
2022/01/25 05:24:42;;;;;;;4.43;2.50;;;21.50;33.90;;;;;;5032390;28;20437;-63
2022/01/25 05:27:11;;;;;;;3.10;2.50;;;21.40;33.80;;;;;;5032128;28;20794;-65
2022/01/25 05:29:37;;;;;;;3.83;2.42;;;21.40;33.70;;;;;;5031457;28;20476;-63
2022/01/25 05:32:03;;;;;;;5.60;2.20;;;21.40;33.60;;;;;;5045583;28;20901;-63
2022/01/25 05:34:29;;;;;;;3.28;2.10;;;21.30;33.50;;;;;;5051645;28;20424;-71
2022/01/25 05:36:54;;;;;;;4.67;2.20;;;21.40;33.30;;;;;;5051690;28;20429;-63
2022/01/25 05:39:41;;;;;;;2.60;2.10;;;21.30;33.50;;;;;;5051805;28;20443;-63
2022/01/25 05:47:19;;;;;;;4.75;2.50;;;21.30;33.20;;;;;;5050460;28;20386;-66
2022/01/25 05:49:45;;;;;;;4.20;2.23;;;21.40;33.30;;;;;;5050380;28;20497;-65
2022/01/25 05:52:12;;;;;;;3.03;2.33;;;21.40;33.20;;;;;;5050678;28;20427;-69
2022/01/25 05:54:38;;;;;;;4.88;2.70;;;21.40;33.20;;;;;;5050499;28;20385;-65
2022/01/25 05:57:05;;;;;;;4.15;2.40;;;21.40;34.20;;;;;;5051138;28;20739;-70
2022/01/25 05:59:31;;;;;;;4.03;2.30;;;21.40;35.00;;;;;;5041621;28;20457;-63
2022/01/25 06:01:57;;;;;;;5.63;2.50;;;21.40;34.20;;;;;;5031306;28;20879;-66
2022/01/25 06:04:23;;;;;;;5.30;2.47;;;21.40;34.00;;;;;;5034423;28;20385;-64
2022/01/25 06:06:50;;;;;;;4.60;2.60;;;21.40;34.00;;;;;;5049995;28;20394;-63
2022/01/25 06:09:16;;;;;;;5.00;2.40;;;21.40;34.00;;;;;;5050868;28;20392;-70
2022/01/25 06:11:41;;;;;;;4.30;2.43;;;21.40;34.50;;;;;;5048501;28;20421;-64
2022/01/25 06:14:07;;;;;;;6.30;2.47;;;21.40;34.40;;;;;;5049242;28;20389;-62
2022/01/25 06:16:33;;;;;;;6.80;2.80;;;21.50;34.50;;;;;;5050919;28;20935;-62
2022/01/25 06:18:59;;;;;;;6.30;3.08;;;21.50;34.40;;;;;;5050877;28;20468;-62
2022/01/25 06:21:25;;;;;;;5.65;3.20;;;21.50;34.80;;;;;;5050786;28;20485;-69
2022/01/25 06:23:51;;;;;;;4.65;2.95;;;21.50;35.00;;;;;;5050379;28;20429;-67
2022/01/25 06:26:17;;;;;;;4.53;3.10;;;21.50;35.00;;;;;;5049600;28;20901;-64
2022/01/25 06:28:43;;;;;;;5.30;3.08;;;21.50;35.30;;;;;;5049648;28;20472;-68
2022/01/25 06:31:09;;;;;;;6.32;3.00;;;21.50;35.30;;;;;;5049605;28;20504;-66
2022/01/25 06:33:37;;;;;;;3.80;2.90;;;21.50;35.10;;;;;;5049739;28;20885;-63
2022/01/25 06:36:03;;;;;;;4.70;2.70;;;21.50;35.10;;;;;;5049898;28;20810;-63
2022/01/25 06:38:29;;;;;;;4.00;2.75;;;21.50;35.70;;;;;;5050145;28;20401;-70
2022/01/25 06:40:55;;;;;;;4.43;2.60;;;21.50;34.90;;;;;;5050727;28;20394;-66
2022/01/25 06:43:21;;;;;;;3.87;2.37;;;21.50;35.00;;;;;;5050749;28;20440;-64
2022/01/25 06:45:55;;;;;;;5.40;2.70;;;21.60;35.00;;;;;;5050400;28;20451;-71
2022/01/25 06:48:21;;;;;;;4.03;2.60;;;21.50;35.10;;;;;;5047085;28;20941;-64
2022/01/25 06:50:46;;;;;;;3.20;2.30;;;21.50;34.30;;;;;;5050413;28;20507;-65
2022/01/25 06:53:12;;;;;;;4.17;2.20;;;21.50;34.30;;;;;;5050414;28;20426;-63
2022/01/25 06:55:38;;;;;;;3.17;2.50;;;21.50;34.10;;;;;;5049550;28;20393;-63
2022/01/25 06:58:04;;;;;;;3.83;2.20;;;21.40;33.90;;;;;;5049413;28;20389;-70
2022/01/25 07:00:29;;;;;;;4.33;2.40;;;21.40;33.80;;;;;;5052022;28;20401;-64
2022/01/25 07:02:55;;;;;;;2.85;2.13;;;21.40;33.70;;;;;;5054783;28;20389;-65
2022/01/25 07:05:21;;;;;;;5.20;2.23;;;21.30;33.50;;;;;;5053369;28;20398;-64
2022/01/25 07:07:47;;;;;;;3.80;2.40;;;21.30;33.70;;;;;;5054175;28;20409;-67
2022/01/25 07:10:13;;;;;;;2.92;2.03;;;21.30;33.90;;;;;;5054354;28;20393;-66
2022/01/25 07:12:39;;;;;;;3.95;2.00;;;21.30;33.70;;;;;;5054601;28;20445;-65
2022/01/25 07:15:05;;;;;;;2.90;2.00;;;21.30;33.60;;;;;;5054437;28;20424;-64
2022/01/25 07:17:31;;;;;;;4.05;2.35;;;21.20;33.50;;;;;;5054238;28;20511;-68
2022/01/25 07:19:57;;;;;;;2.80;2.28;;;21.20;33.30;;;;;;5053935;28;20394;-66
2022/01/25 07:22:22;;;;;;;5.45;2.30;;;21.20;33.20;;;;;;5053729;28;20402;-65
2022/01/25 07:24:48;;;;;;;3.23;2.17;;;21.20;33.10;;;;;;5054175;28;20401;-67
2022/01/25 07:27:14;;;;;;;3.47;2.30;;;21.20;33.10;;;;;;5053866;28;20861;-63
2022/01/25 07:29:39;;;;;;;4.40;2.23;;;21.20;33.10;;;;;;5053912;28;20877;-65
2022/01/25 07:32:05;;;;;;;3.63;2.15;;;21.20;33.00;;;;;;5053933;28;21030;-63
2022/01/25 07:34:31;;;;;;;2.90;2.23;;;21.20;33.00;;;;;;5054083;28;20750;-64
2022/01/25 07:36:57;;;;;;;3.30;2.03;;;21.20;32.80;;;;;;5043307;28;20488;-63
2022/01/25 07:39:23;;;;;;;3.70;2.33;;;21.20;32.80;;;;;;5053338;28;20482;-64
2022/01/25 07:41:49;;;;;;;3.28;2.03;;;21.20;32.70;;;;;;5052947;28;20776;-67
2022/01/25 07:44:15;;;;;;;2.88;2.10;;;21.20;32.70;;;;;;5053825;28;20458;-63
2022/01/25 07:46:41;;;;;;;3.93;2.20;;;21.10;32.60;;;;;;5053610;28;20416;-65
2022/01/25 07:49:07;;;;;;;3.70;2.20;;;21.20;32.60;;;;;;5053150;28;20782;-63
2022/01/25 07:51:35;;;;;;;3.55;2.10;;;21.20;32.60;;;;;;5053335;28;20417;-64
2022/01/25 07:54:01;;;;;;;3.03;2.00;;;21.10;32.60;;;;;;5053486;28;20397;-64
2022/01/25 07:56:27;;;;;;;3.27;1.93;;;21.10;32.50;;;;;;5053626;28;20465;-63
2022/01/25 07:58:53;;;;;;;3.67;2.20;;;21.10;32.50;;;;;;5053639;28;20857;-64
2022/01/25 08:01:20;;;;;;;2.47;2.00;;;21.10;32.50;;;;;;5053437;28;20401;-63
2022/01/25 08:03:46;;;;;;;2.85;2.20;;;21.20;32.50;;;;;;5053121;28;20394;-64
2022/01/25 08:06:13;;;;;;;3.13;2.20;;;21.10;32.40;;;;;;5053581;28;20877;-67
2022/01/25 08:08:39;;;;;;;3.72;1.95;;;21.10;32.40;;;;;;5053448;28;20385;-64
2022/01/25 08:11:05;;;;;;;2.80;2.20;;;21.10;32.30;;;;;;5052940;28;20801;-64
2022/01/25 08:13:31;;;;;;;2.53;2.03;;;21.10;32.30;;;;;;5052860;28;20386;-65
2022/01/25 08:15:57;;;;;;;2.40;1.98;;;21.10;32.30;;;;;;5052834;28;20394;-63
2022/01/25 08:18:22;;;;;;;2.70;2.10;;;21.10;32.20;;;;;;5053208;28;20392;-64
2022/01/25 08:20:48;;;;;;;4.37;2.17;;;21.10;32.20;;;;;;5053187;28;20410;-68
2022/01/25 08:23:14;;;;;;;3.22;1.95;;;21.10;32.10;;;;;;5052870;28;20442;-66
2022/01/25 08:25:40;;;;;;;2.78;1.90;;;21.10;32.10;;;;;;5053632;28;20468;-63
2022/01/25 08:28:06;;;;;;;3.40;1.70;;;21.10;32.10;;;;;;5052953;28;20489;-64
2022/01/25 08:30:32;;;;;;;2.55;1.95;;;21.00;32.10;;;;;;5052994;28;20394;-66
2022/01/25 08:32:58;;;;;;;3.15;2.10;;;21.00;32.10;;;;;;5053002;28;20408;-71
2022/01/25 08:35:24;;;;;;;2.42;1.85;;;21.00;32.60;;;;;;5052861;28;20413;-67
2022/01/25 08:37:50;;;;;;;2.35;1.92;;;21.00;32.00;;;;;;5052570;28;20397;-63
2022/01/25 08:40:16;;;;;;;3.40;2.00;;;21.10;32.00;;;;;;5052797;28;20385;-65
2022/01/25 08:42:42;;;;;;;2.30;1.90;;;21.00;32.00;;;;;;5052861;28;20866;-68
2022/01/25 08:45:09;;;;;;;3.45;1.90;;;21.10;32.00;;;;;;5051535;28;20816;-68
2022/01/25 08:47:36;;;;;;;2.20;1.70;;;21.00;31.90;;;;;;5051681;28;20476;-63
2022/01/25 08:50:05;;;;;;;2.55;1.90;;;21.00;31.90;;;;;;5050861;28;20408;-64
2022/01/25 08:52:31;;;;;;;2.35;1.90;;;21.00;31.80;;;;;;5051355;28;20409;-66
2022/01/25 08:54:56;;;;;;;2.60;1.90;;;21.00;31.80;;;;;;5051517;28;20404;-70
2022/01/25 08:57:22;;;;;;;2.43;2.00;;;21.00;31.80;;;;;;5051240;28;20411;-63
2022/01/25 08:59:48;;;;;;;2.40;2.03;;;21.00;31.80;;;;;;5048096;28;20753;-67
2022/01/25 09:02:13;;;;;;;2.70;2.10;;;21.00;31.80;;;;;;5051309;28;20455;-71
2022/01/25 09:04:39;;;;;;;2.83;2.00;;;21.00;31.80;;;;;;5051087;28;20400;-66
2022/01/25 09:07:05;;;;;;;2.60;2.00;;;21.00;31.70;;;;;;5051055;28;20882;-67
2022/01/25 09:09:30;;;;;;;2.60;2.00;;;21.00;31.70;;;;;;5051008;28;20817;-68
2022/01/25 09:11:57;;;;;;;2.60;2.20;;;21.00;31.70;;;;;;5050598;28;20471;-70
2022/01/25 09:14:23;;;;;;;2.70;2.10;;;21.00;31.70;;;;;;5051023;28;20396;-67
2022/01/25 09:16:49;;;;;;;2.40;1.80;;;21.00;31.70;;;;;;5051463;28;20424;-68
2022/01/25 09:19:15;;;;;;;2.50;2.00;;;21.00;31.70;;;;;;5052010;28;20749;-70
2022/01/25 09:21:41;;;;;;;2.97;2.03;;;21.00;31.70;;;;;;5051862;28;20397;-64
2022/01/25 09:24:07;;;;;;;2.70;2.10;;;21.00;31.70;;;;;;5033947;28;20390;-71
2022/01/25 09:26:32;;;;;;;2.47;2.00;;;21.00;31.70;;;;;;5051999;28;20769;-69
2022/01/25 09:28:58;;;;;;;2.30;1.90;;;20.90;31.60;;;;;;5051486;28;20397;-65
2022/01/25 09:31:24;;;;;;;2.63;2.30;;;21.00;31.70;;;;;;5051155;28;20492;-64
2022/01/25 09:33:51;;;;;;;2.20;2.00;;;21.00;31.70;;;;;;5051433;28;20439;-63
2022/01/25 09:36:17;;;;;;;2.25;1.90;;;20.90;31.60;;;;;;5051660;28;20393;-64
2022/01/25 09:38:42;;;;;;;2.20;1.80;;;21.00;31.60;;;;;;5051756;28;20439;-70
2022/01/25 09:41:08;;;;;;;2.17;1.83;;;20.90;31.50;;;;;;5051692;28;20393;-63
2022/01/25 09:43:34;;;;;;;3.20;2.10;;;20.90;31.50;;;;;;5051694;28;20404;-71
2022/01/25 09:46:00;;;;;;;2.30;1.90;;;20.90;31.50;;;;;;5051536;28;20385;-68
2022/01/25 09:48:26;;;;;;;2.50;2.28;;;21.00;31.50;;;;;;5051274;28;20393;-66
2022/01/25 09:50:52;;;;;;;2.60;2.10;;;20.90;32.10;;;;;;5051531;28;20757;-64
2022/01/25 09:53:19;;;;;;;2.40;2.15;;;20.90;31.50;;;;;;5050647;28;20448;-65
2022/01/25 09:55:46;;;;;;;2.22;1.98;;;20.90;31.50;;;;;;5051287;28;20877;-67
2022/01/25 09:58:13;;;;;;;2.90;2.35;;;20.90;31.40;;;;;;5051438;28;20433;-66
2022/01/25 10:00:41;;;;;;;2.80;2.20;;;20.90;31.50;;;;;;5051291;28;20878;-67
2022/01/25 10:03:23;;;;;;;2.75;2.13;;;20.90;31.50;;;;;;5051136;28;20394;-63
2022/01/25 10:05:50;;;;;;;2.65;2.10;;;20.90;31.60;;;;;;5050950;28;20397;-68
2022/01/25 10:08:19;;;;;;;2.80;1.92;;;20.90;31.50;;;;;;5050847;28;20390;-65
2022/01/25 10:10:51;;;;;;;2.25;2.00;;;20.90;31.60;;;;;;5051078;28;20408;-64
2022/01/25 10:13:32;;;;;;;3.00;2.20;;;20.90;31.60;;;;;;5051180;28;20421;-63
2022/01/25 10:16:01;;;;;;;2.85;2.10;;;20.80;31.60;;;;;;5050800;28;20381;-64
2022/01/25 10:18:47;;;;;;;2.50;2.20;;;20.90;31.60;;;;;;5051179;28;20400;-71
2022/01/25 10:21:16;;;;;;;2.70;2.38;;;20.90;31.60;;;;;;5051162;28;20378;-64
2022/01/25 10:24:07;;;;;;;3.20;2.50;;;20.80;31.60;;;;;;5051298;28;20394;-68
2022/01/25 10:26:39;;;;;;;3.00;2.22;;;20.90;31.60;;;;;;5050993;28;20382;-65
2022/01/25 10:29:09;;;;;;;2.83;2.37;;;20.90;31.50;;;;;;5051187;28;20438;-64
2022/01/25 10:31:41;;;;;;;2.95;2.45;;;20.90;31.40;;;;;;5050956;28;20425;-65
2022/01/25 10:34:10;;;;;;;3.42;2.75;;;20.90;31.40;;;;;;5050675;28;20464;-63
2022/01/25 10:36:45;;;;;;;3.42;2.67;;;20.90;31.40;;;;;;5039858;28;20472;-64
2022/01/25 10:39:20;;;;;;;2.93;2.40;;;20.90;31.60;;;;;;5034817;28;20433;-64
2022/01/25 10:41:46;;;;;;;3.10;2.60;;;20.80;31.70;;;;;;5034932;28;20489;-64
2022/01/25 10:44:12;;;;;;;4.30;3.00;;;20.80;32.20;;;;;;5046310;28;20386;-68
2022/01/25 10:46:38;;;;;;;4.47;3.17;;;20.80;32.40;;;;;;5054027;28;20866;-63
2022/01/25 10:49:15;;;;;;;4.63;3.10;;;20.90;33.90;;;;;;5053398;28;20393;-70
2022/01/25 10:51:49;;;;;;;5.15;2.85;;;21.00;34.10;;;;;;5053820;28;20500;-70
2022/01/25 10:54:23;;;;;;;5.30;3.72;;;21.10;33.80;;;;;;5052033;28;20392;-68
2022/01/25 10:56:56;;;;;;;5.30;4.00;;;21.00;34.00;;;;;;5050746;28;20459;-62
2022/01/25 10:59:24;;;;;;;7.60;4.00;;;21.10;34.20;;;;;;5054385;28;20407;-67
2022/01/25 11:01:54;;;;;;;4.57;3.70;;;21.00;33.70;;;;;;5054546;28;20435;-64
2022/01/25 11:04:31;;;;;;;4.97;3.80;;;21.10;33.60;;;;;;5054613;28;20473;-64
2022/01/25 11:07:01;;;;;;;4.22;3.50;;;21.00;33.30;;;;;;5054369;28;20412;-70
2022/01/25 11:09:35;;;;;;;4.57;3.42;;;21.10;33.00;;;;;;5053934;28;20401;-64
2022/01/25 11:12:01;;;;;;;4.97;3.67;;;21.00;32.90;;;;;;5054154;28;20458;-66
2022/01/25 11:17:11;;;;;;;4.70;3.47;;;21.00;32.80;;;;;;5054372;28;20388;-64
2022/01/25 11:19:37;;;;;;;4.37;3.40;;;21.00;32.70;;;;;;5054254;28;20472;-64
2022/01/25 11:22:03;;;;;;;5.40;3.30;;;20.90;32.60;;;;;;5053997;28;20390;-65
2022/01/25 11:24:31;;;;;;;4.13;3.33;;;21.00;32.60;;;;;;5053278;28;20399;-64
2022/01/25 11:27:02;;;;;;;4.03;3.22;;;20.90;32.50;;;;;;5035947;28;20405;-70
2022/01/25 11:29:28;;;;;;;4.30;3.13;;;20.90;32.50;;;;;;5054177;28;20473;-64
2022/01/25 11:32:04;;;;;;;4.70;3.65;;;20.90;32.50;;;;;;5044518;28;20506;-64
2022/01/25 11:34:31;;;;;;;4.23;3.10;;;20.90;32.40;;;;;;5034171;28;20388;-67
2022/01/25 11:37:07;;;;;;;4.25;3.30;;;20.90;32.40;;;;;;5034014;28;20490;-65
2022/01/25 11:39:34;;;;;;;3.85;3.30;;;20.90;32.30;;;;;;5034031;28;20386;-66
2022/01/25 11:42:03;;;;;;;4.97;3.60;;;20.90;32.30;;;;;;5033590;28;20418;-71
2022/01/25 11:44:29;;;;;;;4.22;3.17;;;20.90;32.20;;;;;;5033873;28;20395;-67
2022/01/25 11:46:58;;;;;;;4.65;3.55;;;20.90;32.20;;;;;;5015019;28;20747;-65
2022/01/25 11:49:25;;;;;;;4.07;3.35;;;20.90;32.10;;;;;;5033573;28;20419;-63
2022/01/25 11:52:04;;;;;;;4.50;3.60;;;20.90;32.10;;;;;;5052832;28;20417;-65
2022/01/25 11:54:30;;;;;;;4.18;3.63;;;20.90;32.10;;;;;;5035347;28;20417;-65
2022/01/25 11:57:12;;;;;;;4.70;3.78;;;20.90;32.00;;;;;;5053725;28;20404;-69
2022/01/25 11:59:39;;;;;;;5.00;3.72;;;20.90;32.00;;;;;;5053016;28;20397;-63
2022/01/25 12:02:05;;;;;;;4.03;3.40;;;20.90;31.90;;;;;;5052689;28;20484;-65
2022/01/25 12:04:31;;;;;;;4.10;3.50;;;20.80;31.80;;;;;;5050539;28;20386;-64
2022/01/25 12:07:08;;;;;;;4.75;3.58;;;20.80;31.80;;;;;;5053474;28;20492;-64
2022/01/25 12:09:45;;;;;;;4.50;3.42;;;20.80;31.80;;;;;;5033433;28;20426;-67
2022/01/25 12:12:13;;;;;;;4.03;3.50;;;20.80;31.80;;;;;;5033192;28;20926;-64
2022/01/25 12:14:43;;;;;;;4.50;3.30;;;20.80;31.80;;;;;;5032910;28;20478;-71
2022/01/25 12:17:13;;;;;;;4.60;3.78;;;20.80;31.70;;;;;;5033030;28;20393;-65
2022/01/25 12:19:51;;;;;;;4.22;3.67;;;20.80;31.70;;;;;;5033260;28;20907;-64
2022/01/25 12:22:26;;;;;;;4.35;3.20;;;20.80;31.70;;;;;;5032968;28;20434;-66
2022/01/25 12:27:47;;;;;;;3.92;3.20;;;20.80;31.60;;;;;;5032982;28;20445;-69
2022/01/25 12:30:19;;;;;;;4.03;3.22;;;20.70;31.50;;;;;;5032571;28;20419;-70
2022/01/25 12:32:58;;;;;;;4.15;3.25;;;20.80;31.60;;;;;;5033010;28;20509;-64
2022/01/25 12:35:41;;;;;;;4.00;3.47;;;20.80;31.60;;;;;;5032895;28;20394;-69
2022/01/25 12:38:19;;;;;;;4.18;3.40;;;20.80;32.30;;;;;;5032543;28;20445;-64
2022/01/25 12:40:56;;;;;;;3.93;3.00;;;20.70;31.80;;;;;;5033008;28;20387;-64
2022/01/25 12:43:28;;;;;;;4.28;3.17;;;20.80;31.80;;;;;;5032792;28;20772;-70
2022/01/25 12:45:58;;;;;;;4.68;3.40;;;20.80;31.70;;;;;;5032633;28;20426;-68
2022/01/25 12:48:42;;;;;;;3.83;3.25;;;20.80;31.70;;;;;;5032724;28;20395;-70
2022/01/25 12:51:12;;;;;;;3.50;3.10;;;20.70;31.60;;;;;;5032507;28;20414;-64
2022/01/25 12:53:41;;;;;;;4.93;3.10;;;20.80;31.60;;;;;;5032667;28;20371;-69
2022/01/25 12:56:27;;;;;;;4.43;3.50;;;20.70;31.50;;;;;;5032231;28;20497;-65
2022/01/25 12:59:02;;;;;;;3.58;3.17;;;20.80;31.60;;;;;;5035161;28;20389;-64
2022/01/25 13:01:28;;;;;;;5.05;3.72;;;20.80;31.70;;;;;;5050908;28;20393;-64
2022/01/25 13:03:59;;;;;;;4.37;3.13;;;20.80;31.70;;;;;;5032911;28;20404;-63
2022/01/25 13:06:30;;;;;;;3.97;3.20;;;20.80;31.70;;;;;;5051029;28;20397;-63
2022/01/25 13:09:06;;;;;;;4.03;3.20;;;20.80;31.80;;;;;;5048707;28;20502;-68
2022/01/25 13:16:52;;;;;;;3.90;2.95;;;20.80;31.80;;;;;;5050969;28;20789;-63
2022/01/25 13:19:24;;;;;;;3.60;3.17;;;20.80;31.80;;;;;;5048629;28;20393;-64
2022/01/25 13:21:56;;;;;;;4.93;3.10;;;20.70;31.70;;;;;;5050762;28;20384;-69
2022/01/25 13:24:27;;;;;;;3.80;3.10;;;20.70;31.70;;;;;;5050545;28;20393;-64
2022/01/25 13:27:00;;;;;;;3.67;2.97;;;20.70;31.70;;;;;;5048037;28;20906;-65
2022/01/25 13:32:28;;;;;;;3.90;2.90;;;20.80;31.80;;;;;;5049307;28;20424;-64
2022/01/25 13:35:06;;;;;;;3.65;2.85;;;20.70;31.80;;;;;;5047855;28;20434;-63
2022/01/25 13:37:33;;;;;;;3.65;2.92;;;20.70;31.80;;;;;;5044096;28;20401;-65
2022/01/25 13:40:02;;;;;;;3.80;3.25;;;20.70;31.70;;;;;;5049808;28;20393;-71
2022/01/25 13:42:43;;;;;;;4.53;2.80;;;20.70;31.80;;;;;;5050276;28;20393;-63
2022/01/25 13:48:11;;;;;;;3.63;2.85;;;20.70;31.70;;;;;;5047900;28;20381;-66
2022/01/25 13:50:39;;;;;;;4.00;2.60;;;20.70;31.80;;;;;;5048028;28;20409;-63
2022/01/25 13:53:06;;;;;;;4.47;2.80;;;20.70;31.80;;;;;;5050249;28;20395;-66
2022/01/25 13:55:32;;;;;;;3.55;2.90;;;20.70;31.80;;;;;;5032934;28;20723;-64
2022/01/25 13:57:58;;;;;;;3.65;2.80;;;20.70;31.80;;;;;;5050765;28;20393;-64
2022/01/25 14:00:25;;;;;;;3.08;2.67;;;20.70;31.80;;;;;;5051331;28;20445;-63
2022/01/25 14:02:56;;;;;;;3.40;2.70;;;20.70;31.80;;;;;;5051507;28;20416;-66
2022/01/25 14:05:23;;;;;;;3.40;2.80;;;20.70;31.80;;;;;;5051323;28;20393;-67
2022/01/25 14:07:54;;;;;;;3.33;2.65;;;20.70;31.80;;;;;;5051433;28;20390;-68
2022/01/25 14:10:26;;;;;;;4.10;3.00;;;20.70;31.80;;;;;;5050033;28;20412;-67
2022/01/25 14:23:54;;;;;;;3.15;2.70;;;20.70;31.80;;;;;;5051899;28;20480;-65
2022/01/25 14:26:26;;;;;;;3.03;2.45;;;20.70;31.80;;;;;;5051023;28;20384;-66
2022/01/25 14:28:54;;;;;;;3.53;2.63;;;20.70;31.80;;;;;;5051156;28;20389;-68
2022/01/25 14:31:23;;;;;;;3.65;2.70;;;20.70;31.70;;;;;;5051194;28;20781;-65
2022/01/25 14:33:56;;;;;;;3.63;2.50;;;20.70;31.80;;;;;;5051011;28;20416;-71
2022/01/25 14:36:24;;;;;;;3.27;2.70;;;20.60;31.70;;;;;;5050843;28;20415;-72
2022/01/25 14:38:52;;;;;;;4.18;2.78;;;20.70;31.70;;;;;;5051252;28;20385;-66
2022/01/25 14:41:31;;;;;;;3.40;2.72;;;20.70;31.70;;;;;;5051195;28;20882;-66
2022/01/25 14:44:04;;;;;;;3.50;2.67;;;20.60;31.60;;;;;;5050850;28;20472;-67
2022/01/25 14:46:36;;;;;;;3.33;2.70;;;20.70;31.70;;;;;;5051136;28;20397;-72
2022/01/25 14:49:27;;;;;;;3.20;2.40;;;20.60;31.60;;;;;;5050869;28;20470;-70
2022/01/25 14:52:01;;;;;;;2.92;2.60;;;20.60;31.60;;;;;;5051060;28;20432;-67
2022/01/25 14:54:32;;;;;;;3.10;2.50;;;20.60;31.60;;;;;;5051025;28;20381;-66
2022/01/25 14:57:02;;;;;;;2.95;2.65;;;20.60;31.60;;;;;;5051127;28;20475;-72
2022/01/25 14:59:31;;;;;;;3.50;2.50;;;20.60;31.50;;;;;;5050969;28;20393;-67